Time;durP1;ratioP1;P1;durP2;ratioP2;P2;SDS_P1;SDS_P2;PMS_P1;PMS_P2;Temp;Humidity;BMP_temperature;BMP_pressure;BME280_temperature;BME280_humidity;BME280_pressure;Samples;Min_cycle;Max_cycle;Signal;HPM_P1;HPM_P2
2023/12/23 00:00:33;;;;;;;4.45;1.08;;;6.00;99.90;;;;;;5000182;28;20038;-78
2023/12/23 00:03:00;;;;;;;2.58;1.17;;;6.00;99.90;;;;;;4997736;28;20045;-79
2023/12/23 00:05:26;;;;;;;6.40;2.47;;;6.00;99.90;;;;;;4998920;28;20070;-78
2023/12/23 00:07:51;;;;;;;5.90;1.85;;;6.00;99.90;;;;;;5030111;28;20179;-78
2023/12/23 00:10:17;;;;;;;7.45;2.78;;;6.00;99.90;;;;;;4980231;28;20090;-78
2023/12/23 00:12:43;;;;;;;2.28;1.45;;;6.00;99.90;;;;;;5010527;28;20046;-78
2023/12/23 00:15:09;;;;;;;3.70;1.20;;;6.10;99.90;;;;;;4993952;28;20073;-78
2023/12/23 00:17:34;;;;;;;2.63;1.80;;;6.10;99.90;;;;;;4979745;28;20058;-79
2023/12/23 00:20:00;;;;;;;3.70;1.23;;;6.10;99.90;;;;;;4985072;28;20057;-78
2023/12/23 00:22:25;;;;;;;3.35;1.13;;;6.10;99.90;;;;;;5028709;28;20049;-78
2023/12/23 00:24:51;;;;;;;3.17;2.00;;;6.10;99.90;;;;;;5014662;28;20129;-78
2023/12/23 00:27:17;;;;;;;2.13;1.38;;;6.10;99.90;;;;;;5031491;28;20201;-78
2023/12/23 00:29:42;;;;;;;4.70;2.15;;;6.10;99.90;;;;;;4988295;28;20042;-78
2023/12/23 00:32:08;;;;;;;5.15;1.85;;;6.10;99.90;;;;;;4991414;28;20038;-78
2023/12/23 00:34:34;;;;;;;3.65;1.05;;;6.20;99.90;;;;;;4986087;28;20046;-78
2023/12/23 00:36:59;;;;;;;3.22;1.83;;;6.20;99.90;;;;;;4981376;28;20127;-78
2023/12/23 00:39:25;;;;;;;5.40;1.77;;;6.20;99.90;;;;;;4978843;28;20121;-78
2023/12/23 00:41:51;;;;;;;3.65;1.20;;;6.20;99.90;;;;;;4978078;28;20038;-78
2023/12/23 00:44:16;;;;;;;4.63;1.55;;;6.20;99.90;;;;;;4980258;28;20042;-78
2023/12/23 00:46:42;;;;;;;3.47;1.10;;;6.30;99.90;;;;;;4990950;28;20088;-78
2023/12/23 00:49:07;;;;;;;14.50;3.08;;;6.30;99.90;;;;;;4978874;28;20046;-78
2023/12/23 00:51:33;;;;;;;7.55;1.65;;;6.30;99.90;;;;;;4979851;28;20330;-79
2023/12/23 00:53:59;;;;;;;12.00;1.50;;;6.30;99.90;;;;;;4978336;28;20070;-78
2023/12/23 00:56:24;;;;;;;2.42;1.08;;;6.30;99.90;;;;;;4979092;28;20465;-78
2023/12/23 00:58:50;;;;;;;3.95;2.15;;;6.30;99.90;;;;;;4987004;28;20133;-78
2023/12/23 01:01:16;;;;;;;1.83;1.63;;;6.30;99.90;;;;;;4996836;28;20049;-78
2023/12/23 01:03:43;;;;;;;6.18;2.03;;;6.30;99.90;;;;;;5029633;28;20182;-78
2023/12/23 01:06:09;;;;;;;2.45;1.15;;;6.30;99.90;;;;;;4997565;28;20038;-78
2023/12/23 01:08:35;;;;;;;2.65;1.30;;;6.30;99.90;;;;;;4989983;28;20561;-78
2023/12/23 01:11:00;;;;;;;5.18;0.95;;;6.30;99.90;;;;;;4977760;28;20058;-78
2023/12/23 01:13:26;;;;;;;1.50;0.82;;;6.30;99.90;;;;;;4975402;28;20431;-79
2023/12/23 01:15:52;;;;;;;0.80;0.60;;;6.30;99.90;;;;;;4973116;28;20307;-78
2023/12/23 01:18:18;;;;;;;14.63;0.95;;;6.30;99.90;;;;;;4979531;28;20331;-78
2023/12/23 01:20:43;;;;;;;5.93;0.80;;;6.30;99.90;;;;;;5011271;28;20042;-78
2023/12/23 01:23:10;;;;;;;1.48;1.10;;;6.30;99.90;;;;;;4978611;28;20779;-78
2023/12/23 01:25:35;;;;;;;2.03;1.75;;;6.30;99.90;;;;;;4967428;28;20038;-78
2023/12/23 01:28:04;;;;;;;3.05;1.17;;;6.30;99.90;;;;;;4996881;28;20712;-78
2023/12/23 01:30:36;;;;;;;4.57;2.05;;;6.30;99.90;;;;;;4980119;28;20244;-78
2023/12/23 01:33:02;;;;;;;2.72;0.68;;;6.30;99.90;;;;;;4980993;28;20103;-77
2023/12/23 01:35:28;;;;;;;2.17;1.40;;;6.30;99.90;;;;;;4998142;28;20065;-78
2023/12/23 01:37:53;;;;;;;2.17;1.42;;;6.30;99.90;;;;;;4984069;28;20616;-78
2023/12/23 01:40:19;;;;;;;0.65;0.50;;;6.30;99.90;;;;;;4984214;28;20034;-78
2023/12/23 01:42:45;;;;;;;3.58;0.82;;;6.30;99.90;;;;;;4982240;28;20065;-78
2023/12/23 01:45:11;;;;;;;6.15;1.25;;;6.30;99.90;;;;;;4975749;28;20538;-78
2023/12/23 01:47:41;;;;;;;1.75;0.77;;;6.30;99.90;;;;;;4990075;28;20084;-78
2023/12/23 01:50:08;;;;;;;1.67;0.82;;;6.30;99.90;;;;;;4973736;28;20072;-78
2023/12/23 01:52:34;;;;;;;1.55;0.60;;;6.20;99.90;;;;;;4979197;28;20096;-78
2023/12/23 01:55:00;;;;;;;4.97;1.77;;;6.10;99.90;;;;;;4999273;28;20544;-78
2023/12/23 01:57:26;;;;;;;1.10;0.43;;;6.10;99.90;;;;;;5002342;28;20042;-79
2023/12/23 01:59:51;;;;;;;1.55;0.40;;;6.00;99.90;;;;;;5032527;28;20408;-79
2023/12/23 02:02:17;;;;;;;1.83;0.60;;;5.90;99.90;;;;;;4992566;28;20054;-78
2023/12/23 02:04:43;;;;;;;1.77;1.02;;;5.90;99.90;;;;;;4982739;28;20121;-78
2023/12/23 02:07:08;;;;;;;3.78;1.27;;;5.90;99.90;;;;;;4981286;28;20061;-78
2023/12/23 02:09:34;;;;;;;1.48;1.27;;;5.90;99.90;;;;;;4992469;28;20050;-78
2023/12/23 02:12:22;;;;;;;2.60;0.90;;;5.90;99.90;;;;;;4984459;28;20089;-78
2023/12/23 02:14:59;;;;;;;3.40;2.15;;;5.80;99.90;;;;;;4987830;28;20039;-78
2023/12/23 02:17:25;;;;;;;3.22;1.15;;;5.90;99.90;;;;;;4981427;28;20162;-78
2023/12/23 02:19:50;;;;;;;2.45;0.65;;;5.90;99.90;;;;;;4989206;28;20074;-78
2023/12/23 02:22:16;;;;;;;1.73;0.82;;;5.90;99.90;;;;;;4982189;28;20054;-78
2023/12/23 02:24:41;;;;;;;0.35;0.32;;;5.90;99.90;;;;;;4989271;28;20092;-78
2023/12/23 02:27:11;;;;;;;1.27;0.45;;;5.90;99.90;;;;;;4980758;28;20054;-78
2023/12/23 02:29:38;;;;;;;1.67;0.82;;;5.90;99.90;;;;;;4980690;28;20137;-79
2023/12/23 02:32:05;;;;;;;6.18;0.80;;;5.90;99.90;;;;;;4981942;28;20070;-78
2023/12/23 02:34:31;;;;;;;4.45;0.55;;;5.80;99.90;;;;;;4986390;28;20129;-78
2023/12/23 02:36:57;;;;;;;3.72;0.93;;;5.80;99.90;;;;;;4998026;28;20564;-79
2023/12/23 02:39:22;;;;;;;0.98;0.50;;;5.80;99.90;;;;;;5001893;28;20049;-79
2023/12/23 02:41:48;;;;;;;1.15;0.38;;;5.80;99.90;;;;;;4997582;28;20641;-78
2023/12/23 02:44:14;;;;;;;3.38;0.40;;;5.80;99.90;;;;;;4987215;28;20488;-78
2023/12/23 02:46:40;;;;;;;1.48;0.65;;;5.80;99.90;;;;;;4980000;28;20041;-78
2023/12/23 02:49:05;;;;;;;2.08;0.95;;;5.80;99.90;;;;;;5030335;28;20123;-79
2023/12/23 02:51:31;;;;;;;2.58;0.90;;;5.80;99.90;;;;;;4987979;28;20557;-79
2023/12/23 02:53:56;;;;;;;1.80;0.98;;;5.80;99.90;;;;;;4982937;28;20418;-78
2023/12/23 02:56:22;;;;;;;0.73;0.70;;;5.80;99.90;;;;;;4990472;28;20052;-79
2023/12/23 02:58:47;;;;;;;1.20;0.68;;;5.80;99.90;;;;;;4980442;28;20041;-78
2023/12/23 03:01:13;;;;;;;1.48;1.20;;;5.80;99.90;;;;;;4993967;28;20103;-78
2023/12/23 03:03:38;;;;;;;4.57;1.42;;;5.80;99.90;;;;;;4986774;28;20544;-79
2023/12/23 03:06:04;;;;;;;1.48;1.20;;;5.70;99.90;;;;;;4984844;28;20038;-79
2023/12/23 03:08:30;;;;;;;2.25;0.90;;;5.80;99.90;;;;;;4993385;28;20046;-79
2023/12/23 03:10:56;;;;;;;2.35;0.85;;;5.70;99.90;;;;;;4979999;28;20133;-79
2023/12/23 03:13:22;;;;;;;3.70;0.88;;;5.80;99.90;;;;;;4978504;28;20561;-79
2023/12/23 03:15:47;;;;;;;4.43;2.08;;;5.80;99.90;;;;;;4995967;28;20085;-79
2023/12/23 03:18:13;;;;;;;1.90;0.80;;;5.70;99.90;;;;;;4980277;28;20050;-79
2023/12/23 03:20:38;;;;;;;3.92;1.20;;;5.70;99.90;;;;;;4987766;28;21004;-79
2023/12/23 03:23:04;;;;;;;2.72;0.60;;;5.70;99.90;;;;;;5000324;28;20140;-79
2023/12/23 03:25:30;;;;;;;8.18;1.52;;;5.70;99.90;;;;;;4999053;28;20041;-79
2023/12/23 03:27:55;;;;;;;4.70;0.93;;;5.70;99.90;;;;;;5000750;28;20034;-79
2023/12/23 03:30:21;;;;;;;1.52;0.73;;;5.70;99.90;;;;;;5028377;28;20574;-79
2023/12/23 03:32:46;;;;;;;1.27;0.55;;;5.70;99.90;;;;;;4992884;28;20732;-78
2023/12/23 03:35:12;;;;;;;0.60;0.40;;;5.80;99.90;;;;;;4993161;28;20070;-79
2023/12/23 03:37:37;;;;;;;5.95;1.83;;;5.80;99.90;;;;;;5000572;28;20096;-79
2023/12/23 03:40:04;;;;;;;2.25;0.47;;;5.70;99.90;;;;;;4986919;28;20747;-79
2023/12/23 03:42:30;;;;;;;3.72;1.15;;;5.80;99.90;;;;;;4980968;28;20636;-79
2023/12/23 03:44:55;;;;;;;2.80;0.95;;;5.80;99.90;;;;;;4979850;28;20046;-79
2023/12/23 03:47:21;;;;;;;1.30;1.00;;;5.80;99.90;;;;;;4962622;28;20400;-79
2023/12/23 03:49:46;;;;;;;1.50;0.52;;;5.70;99.90;;;;;;4991515;28;20065;-79
2023/12/23 03:52:12;;;;;;;14.82;1.63;;;5.70;99.90;;;;;;5000422;28;20729;-79
2023/12/23 03:54:38;;;;;;;1.15;0.80;;;5.80;99.90;;;;;;5031657;28;20042;-79
2023/12/23 03:57:03;;;;;;;1.70;1.17;;;5.80;99.90;;;;;;5004252;28;20046;-79
2023/12/23 03:59:29;;;;;;;1.15;0.80;;;5.80;99.90;;;;;;4984615;28;20105;-79
2023/12/23 04:01:55;;;;;;;1.33;0.85;;;5.80;99.90;;;;;;4993096;28;20038;-79
2023/12/23 04:04:20;;;;;;;5.07;1.55;;;5.80;99.90;;;;;;4997284;28;20060;-79
2023/12/23 04:06:46;;;;;;;0.73;0.40;;;5.80;99.90;;;;;;4997105;28;20077;-79
2023/12/23 04:09:11;;;;;;;0.55;0.55;;;5.80;99.90;;;;;;5019669;28;20129;-79
2023/12/23 04:11:37;;;;;;;1.45;0.25;;;5.80;99.90;;;;;;4995605;28;20046;-79
2023/12/23 04:14:03;;;;;;;0.30;0.30;;;5.80;99.90;;;;;;5011365;28;20050;-79
2023/12/23 04:16:29;;;;;;;0.35;0.35;;;5.80;99.90;;;;;;4997715;28;20525;-79
2023/12/23 04:18:54;;;;;;;0.98;0.68;;;5.80;99.90;;;;;;5029455;28;20121;-79
2023/12/23 04:21:20;;;;;;;2.25;0.47;;;5.80;99.90;;;;;;5019152;28;20183;-79
2023/12/23 04:23:45;;;;;;;1.35;0.73;;;5.80;99.90;;;;;;5020195;28;20061;-79
2023/12/23 04:26:14;;;;;;;0.75;0.70;;;5.80;99.90;;;;;;4983959;28;20046;-78
2023/12/23 04:28:39;;;;;;;0.25;0.20;;;5.80;99.90;;;;;;4982288;28;20045;-78
2023/12/23 04:31:06;;;;;;;5.50;0.88;;;5.80;99.90;;;;;;4999230;28;20573;-78
2023/12/23 04:33:34;;;;;;;1.02;0.70;;;5.80;99.90;;;;;;4998799;28;20038;-78
2023/12/23 04:36:00;;;;;;;1.40;0.45;;;5.90;99.90;;;;;;4985951;28;20097;-78
2023/12/23 04:38:25;;;;;;;2.45;0.40;;;5.80;99.90;;;;;;4962739;28;20045;-78
2023/12/23 04:40:51;;;;;;;3.08;0.93;;;5.80;99.90;;;;;;4979356;28;20077;-79
2023/12/23 04:43:17;;;;;;;5.25;0.32;;;5.80;99.90;;;;;;4980503;28;20125;-78
2023/12/23 04:45:42;;;;;;;0.32;0.22;;;5.90;99.90;;;;;;4987837;28;20046;-78
2023/12/23 04:48:08;;;;;;;7.15;0.60;;;5.90;99.90;;;;;;4979519;28;20081;-78
2023/12/23 04:50:34;;;;;;;0.40;0.40;;;5.90;99.90;;;;;;4978329;28;20729;-78
2023/12/23 04:53:00;;;;;;;2.40;0.40;;;5.90;99.90;;;;;;4979875;28;20049;-78
2023/12/23 04:55:25;;;;;;;0.50;0.50;;;5.90;99.90;;;;;;4980868;28;20038;-78
2023/12/23 04:57:51;;;;;;;1.80;0.75;;;5.90;99.90;;;;;;4991493;28;20053;-79
2023/12/23 05:00:17;;;;;;;1.23;0.63;;;5.90;99.90;;;;;;5020563;28;20052;-78
2023/12/23 05:02:42;;;;;;;0.10;0.10;;;5.90;99.90;;;;;;5028383;28;20038;-78
2023/12/23 05:05:08;;;;;;;0.70;0.70;;;5.90;99.90;;;;;;4998691;28;20064;-78
2023/12/23 05:07:34;;;;;;;0.32;0.20;;;5.90;99.90;;;;;;5018367;28;20073;-78
2023/12/23 05:09:59;;;;;;;0.25;0.25;;;5.90;99.90;;;;;;4981329;28;20145;-78
2023/12/23 05:12:25;;;;;;;0.43;0.43;;;5.90;99.90;;;;;;4971944;28;20266;-78
2023/12/23 05:14:51;;;;;;;1.30;0.38;;;5.90;99.90;;;;;;4986411;28;20107;-79
2023/12/23 05:17:17;;;;;;;0.63;0.47;;;5.90;99.90;;;;;;4986462;28;20074;-78
2023/12/23 05:19:42;;;;;;;1.90;0.50;;;5.90;99.90;;;;;;4988429;28;20112;-78
2023/12/23 05:22:08;;;;;;;0.20;0.20;;;5.90;99.90;;;;;;4986508;28;20042;-78
2023/12/23 05:24:37;;;;;;;0.10;0.10;;;5.90;99.90;;;;;;4988160;28;20038;-78
2023/12/23 05:27:03;;;;;;;0.40;0.17;;;5.90;99.90;;;;;;4992958;28;20049;-78
2023/12/23 05:29:29;;;;;;;0.10;0.10;;;5.90;99.90;;;;;;4998841;28;20052;-79
2023/12/23 05:31:55;;;;;;;0.30;0.20;;;6.00;99.90;;;;;;4998672;28;20642;-78
2023/12/23 05:34:20;;;;;;;0.20;0.20;;;6.00;99.90;;;;;;4982831;28;20349;-79
2023/12/23 05:36:46;;;;;;;0.35;0.35;;;6.00;99.90;;;;;;5014627;28;20104;-78
2023/12/23 05:39:11;;;;;;;0.35;0.35;;;6.00;99.90;;;;;;5014457;28;20047;-77
2023/12/23 05:41:37;;;;;;;0.57;0.40;;;6.10;99.90;;;;;;4982184;28;20069;-78
2023/12/23 05:44:03;;;;;;;0.80;0.30;;;6.20;99.90;;;;;;4984898;28;20627;-78
2023/12/23 05:46:28;;;;;;;0.40;0.40;;;6.10;99.90;;;;;;4983131;28;20538;-77
2023/12/23 05:48:54;;;;;;;2.70;0.75;;;6.20;99.90;;;;;;4981599;28;20076;-78
2023/12/23 05:51:19;;;;;;;3.78;1.05;;;6.20;99.90;;;;;;4986995;28;20385;-78
2023/12/23 05:53:45;;;;;;;3.72;1.73;;;6.40;99.90;;;;;;4982780;28;20042;-78
2023/12/23 05:56:10;;;;;;;7.07;2.80;;;6.60;99.90;;;;;;4982583;28;20072;-78
2023/12/23 05:58:36;;;;;;;3.95;1.88;;;6.70;99.90;;;;;;4993140;28;20045;-78
2023/12/23 06:01:02;;;;;;;2.30;1.30;;;6.90;99.90;;;;;;5022543;28;20520;-78
2023/12/23 06:03:28;;;;;;;2.85;1.23;;;6.90;99.90;;;;;;4990656;28;20077;-78
2023/12/23 06:05:53;;;;;;;5.65;1.20;;;7.00;99.90;;;;;;4968671;28;20038;-78
2023/12/23 06:08:19;;;;;;;3.70;1.75;;;6.90;99.90;;;;;;4996984;28;20073;-78
2023/12/23 06:10:45;;;;;;;3.08;1.45;;;6.90;99.90;;;;;;4995712;28;20065;-78
2023/12/23 06:13:10;;;;;;;6.25;1.33;;;6.90;99.90;;;;;;4982897;28;20054;-78
2023/12/23 06:15:36;;;;;;;2.30;1.60;;;7.00;99.90;;;;;;4968098;28;20514;-78
2023/12/23 06:18:02;;;;;;;4.20;1.38;;;7.10;99.90;;;;;;4999681;28;20057;-78
2023/12/23 06:20:28;;;;;;;5.80;1.58;;;7.20;99.90;;;;;;5013412;28;20046;-78
2023/12/23 06:22:53;;;;;;;9.18;2.70;;;7.20;99.90;;;;;;4964847;28;20046;-78
2023/12/23 06:25:19;;;;;;;5.75;2.10;;;7.40;99.90;;;;;;4979461;28;20346;-77
2023/12/23 06:27:44;;;;;;;4.68;1.10;;;7.40;99.90;;;;;;4965535;28;20047;-78
2023/12/23 06:30:11;;;;;;;6.47;1.25;;;7.50;99.90;;;;;;4975831;28;20039;-78
2023/12/23 06:32:37;;;;;;;5.63;1.60;;;7.50;99.90;;;;;;4996618;28;20049;-78
2023/12/23 06:35:03;;;;;;;1.52;0.80;;;7.50;99.90;;;;;;4981476;28;20370;-78
2023/12/23 06:37:29;;;;;;;9.13;1.85;;;7.50;99.90;;;;;;5031780;28;20057;-78
2023/12/23 06:39:54;;;;;;;8.32;1.55;;;7.60;99.90;;;;;;4987246;28;20046;-78
2023/12/23 06:42:20;;;;;;;4.03;1.45;;;7.60;99.90;;;;;;5030190;28;20030;-78
2023/12/23 06:44:46;;;;;;;5.38;1.30;;;7.60;99.90;;;;;;5023690;28;20046;-78
2023/12/23 06:47:11;;;;;;;2.22;1.60;;;7.60;99.90;;;;;;4987311;28;20081;-78
2023/12/23 06:49:37;;;;;;;6.28;1.80;;;7.60;99.90;;;;;;4992335;28;20042;-78
2023/12/23 06:52:03;;;;;;;9.82;2.70;;;7.60;99.90;;;;;;4988828;28;20378;-78
2023/12/23 06:54:29;;;;;;;4.80;2.05;;;7.60;99.90;;;;;;4976575;28;20049;-78
2023/12/23 06:56:54;;;;;;;11.15;2.40;;;7.60;99.90;;;;;;4990894;28;20632;-78
2023/12/23 06:59:20;;;;;;;11.68;1.98;;;7.70;99.90;;;;;;4974879;28;20124;-78
2023/12/23 07:01:45;;;;;;;6.88;2.65;;;7.60;99.90;;;;;;4976053;28;20389;-78
2023/12/23 07:04:11;;;;;;;9.32;2.80;;;7.80;99.90;;;;;;4981314;28;20082;-78
2023/12/23 07:06:37;;;;;;;11.25;2.22;;;7.90;99.90;;;;;;4980688;28;20054;-78
2023/12/23 07:09:02;;;;;;;17.20;2.92;;;8.00;99.90;;;;;;4980193;28;20133;-78
2023/12/23 07:11:28;;;;;;;14.05;2.40;;;8.10;99.90;;;;;;4993779;28;20054;-78
2023/12/23 07:13:54;;;;;;;16.92;3.20;;;8.20;99.90;;;;;;4985306;28;20088;-78
2023/12/23 07:16:20;;;;;;;5.63;1.23;;;8.20;99.90;;;;;;4987173;28;20042;-78
2023/12/23 07:18:45;;;;;;;6.47;1.48;;;8.10;99.90;;;;;;5000285;28;20034;-78
2023/12/23 07:21:11;;;;;;;9.95;1.60;;;8.00;99.90;;;;;;4989145;28;20133;-78
2023/12/23 07:23:37;;;;;;;4.30;1.20;;;7.90;99.90;;;;;;4980247;28;20093;-78
2023/12/23 07:26:03;;;;;;;3.35;1.98;;;7.80;99.90;;;;;;4985059;28;20405;-78
2023/12/23 07:28:29;;;;;;;3.95;1.13;;;7.70;99.90;;;;;;4963508;28;20232;-78
2023/12/23 07:30:55;;;;;;;2.05;0.70;;;7.70;99.90;;;;;;4999007;28;20045;-78
2023/12/23 07:33:22;;;;;;;2.92;0.43;;;7.60;99.90;;;;;;4999747;28;20414;-78
2023/12/23 07:35:48;;;;;;;2.15;1.38;;;7.50;99.90;;;;;;4998867;28;20516;-78
2023/12/23 07:38:13;;;;;;;1.17;0.47;;;7.40;99.90;;;;;;4978908;28;20180;-78
2023/12/23 07:40:40;;;;;;;0.73;0.50;;;7.20;99.90;;;;;;4980868;28;20042;-78
2023/12/23 07:43:06;;;;;;;2.90;1.42;;;7.10;99.90;;;;;;4980559;28;20042;-78
2023/12/23 07:45:32;;;;;;;0.82;0.40;;;7.00;99.90;;;;;;4979976;28;20034;-78
2023/12/23 07:47:57;;;;;;;2.67;1.75;;;7.00;99.90;;;;;;4997074;28;20103;-78
2023/12/23 07:50:23;;;;;;;2.35;0.73;;;6.90;99.90;;;;;;4998937;28;20176;-78
2023/12/23 07:52:49;;;;;;;1.02;0.70;;;6.90;99.90;;;;;;4981149;28;20042;-78
2023/12/23 07:55:15;;;;;;;1.17;0.32;;;6.80;99.90;;;;;;4981824;28;20699;-78
2023/12/23 07:57:42;;;;;;;0.90;0.73;;;6.70;99.90;;;;;;4996209;28;20045;-78
2023/12/23 08:00:09;;;;;;;0.60;0.43;;;6.70;99.90;;;;;;5000026;28;20065;-78
2023/12/23 08:02:35;;;;;;;0.50;0.50;;;6.70;99.90;;;;;;4999882;28;20042;-79
2023/12/23 08:05:02;;;;;;;0.98;0.80;;;6.70;99.90;;;;;;4998499;28;20042;-79
2023/12/23 08:07:28;;;;;;;0.30;0.20;;;6.60;99.90;;;;;;4976135;28;20060;-78
2023/12/23 08:09:53;;;;;;;0.22;0.22;;;6.50;99.90;;;;;;4980359;28;20424;-79
2023/12/23 08:12:19;;;;;;;1.80;0.25;;;6.50;99.90;;;;;;5009665;28;20054;-78
2023/12/23 08:14:45;;;;;;;1.02;0.57;;;6.40;99.90;;;;;;5007522;28;20038;-78
2023/12/23 08:17:11;;;;;;;0.40;0.40;;;6.40;99.90;;;;;;4988027;28;20100;-79
2023/12/23 08:19:37;;;;;;;0.20;0.20;;;6.30;99.90;;;;;;4984398;28;20046;-79
2023/12/23 08:22:03;;;;;;;0.10;0.10;;;6.30;99.90;;;;;;5024702;28;20428;-79
2023/12/23 08:24:28;;;;;;;0.10;0.10;;;6.30;99.90;;;;;;4998431;28;20488;-79
2023/12/23 08:26:54;;;;;;;0.40;0.40;;;6.20;99.90;;;;;;4998152;28;20338;-79
2023/12/23 08:29:20;;;;;;;1.98;0.70;;;6.20;99.90;;;;;;4991654;28;20038;-78
2023/12/23 08:31:46;;;;;;;0.55;0.40;;;6.20;99.90;;;;;;4980107;28;20046;-78
2023/12/23 08:34:11;;;;;;;0.17;0.17;;;6.20;99.90;;;;;;4978241;28;20178;-78
2023/12/23 08:36:37;;;;;;;0.20;0.13;;;6.20;99.90;;;;;;4963905;28;20523;-79
2023/12/23 08:39:03;;;;;;;0.17;0.17;;;6.20;99.90;;;;;;5004399;28;20501;-79
2023/12/23 08:41:28;;;;;;;0.22;0.22;;;6.20;99.90;;;;;;4979397;28;20056;-79
2023/12/23 08:43:54;;;;;;;0.20;0.20;;;6.20;99.90;;;;;;4960029;28;20049;-79
2023/12/23 08:46:20;;;;;;;1.65;0.30;;;6.20;99.90;;;;;;4981763;28;20034;-79
2023/12/23 08:48:45;;;;;;;2.88;0.75;;;6.20;99.90;;;;;;5030039;28;20049;-78
2023/12/23 08:51:11;;;;;;;0.52;0.30;;;6.20;99.90;;;;;;4985107;28;20046;-79
2023/12/23 08:53:37;;;;;;;0.93;0.55;;;6.10;99.90;;;;;;5024095;28;20525;-79
2023/12/23 08:56:03;;;;;;;0.40;0.40;;;6.20;99.90;;;;;;4977266;28;20453;-79
2023/12/23 08:58:30;;;;;;;0.32;0.30;;;6.20;99.90;;;;;;4979307;28;20541;-79
2023/12/23 09:00:57;;;;;;;0.25;0.17;;;6.20;99.90;;;;;;4979776;28;20476;-79
2023/12/23 09:03:22;;;;;;;0.40;0.40;;;6.20;99.90;;;;;;4978496;28;20315;-79
2023/12/23 09:05:48;;;;;;;0.60;0.60;;;6.20;99.90;;;;;;4978587;28;20113;-79
2023/12/23 09:08:13;;;;;;;0.60;0.60;;;6.20;99.90;;;;;;4984711;28;20073;-79
2023/12/23 09:10:39;;;;;;;1.25;0.20;;;6.20;99.90;;;;;;4979079;28;20058;-79
2023/12/23 09:13:05;;;;;;;0.40;0.40;;;6.20;99.90;;;;;;4992157;28;20056;-79
2023/12/23 09:15:30;;;;;;;0.65;0.50;;;6.20;99.90;;;;;;4999281;28;20155;-79
2023/12/23 09:17:56;;;;;;;0.43;0.25;;;6.20;99.90;;;;;;4989110;28;20045;-79
2023/12/23 09:20:22;;;;;;;1.45;0.60;;;6.20;99.90;;;;;;4967730;28;20042;-79
2023/12/23 09:22:48;;;;;;;1.90;0.75;;;6.20;99.90;;;;;;4980252;28;20073;-79
2023/12/23 09:25:13;;;;;;;0.70;0.40;;;6.20;99.90;;;;;;4984568;28;20144;-78
2023/12/23 09:27:39;;;;;;;0.40;0.30;;;6.20;99.90;;;;;;4995264;28;20049;-79
2023/12/23 09:30:05;;;;;;;2.20;0.75;;;6.20;99.90;;;;;;4977244;28;20038;-78
2023/12/23 09:32:31;;;;;;;0.30;0.30;;;6.20;99.90;;;;;;4977490;28;20242;-79
2023/12/23 09:34:56;;;;;;;0.47;0.30;;;6.20;99.90;;;;;;4979133;28;20077;-78
2023/12/23 09:37:22;;;;;;;0.25;0.25;;;6.10;99.90;;;;;;4983808;28;20505;-79
2023/12/23 09:39:48;;;;;;;0.30;0.30;;;6.00;99.90;;;;;;5019441;28;20114;-79
2023/12/23 09:42:14;;;;;;;0.20;0.20;;;6.10;99.90;;;;;;4970264;28;20453;-78
2023/12/23 09:44:40;;;;;;;3.05;0.88;;;6.10;99.90;;;;;;4987310;28;20038;-79
2023/12/23 09:47:07;;;;;;;0.30;0.30;;;6.10;99.90;;;;;;4982910;28;20125;-79
2023/12/23 09:49:32;;;;;;;0.32;0.32;;;6.10;99.90;;;;;;4962893;28;20054;-79
2023/12/23 09:51:59;;;;;;;1.00;0.70;;;6.10;99.90;;;;;;4981503;28;20124;-80
2023/12/23 09:54:29;;;;;;;0.65;0.57;;;6.10;99.90;;;;;;4991901;28;20050;-79
2023/12/23 09:56:55;;;;;;;0.55;0.55;;;6.10;99.90;;;;;;4990631;28;20505;-80
2023/12/23 09:59:23;;;;;;;4.43;1.00;;;6.20;99.90;;;;;;4978726;28;20058;-79
2023/12/23 10:01:48;;;;;;;2.30;0.93;;;6.20;99.90;;;;;;4973368;28;20050;-79
2023/12/23 10:04:14;;;;;;;3.22;1.55;;;6.30;99.90;;;;;;5006696;28;20444;-79
2023/12/23 10:06:40;;;;;;;2.95;0.82;;;6.40;99.90;;;;;;5012333;28;20153;-80
2023/12/23 10:09:05;;;;;;;3.55;1.63;;;6.50;99.90;;;;;;4990296;28;20054;-79
2023/12/23 10:11:31;;;;;;;3.25;0.93;;;6.60;99.90;;;;;;5015446;28;20485;-79
2023/12/23 10:13:56;;;;;;;11.38;1.73;;;6.80;99.90;;;;;;4971716;28;20054;-79
2023/12/23 10:16:22;;;;;;;4.75;2.17;;;6.90;99.90;;;;;;4991596;28;20049;-80
2023/12/23 10:18:48;;;;;;;4.13;2.05;;;7.10;99.90;;;;;;4966961;28;20421;-79
2023/12/23 10:21:14;;;;;;;8.45;4.13;;;7.20;99.90;;;;;;5010533;28;20516;-79
2023/12/23 10:23:40;;;;;;;8.00;1.48;;;7.40;99.90;;;;;;4990047;28;20571;-77
2023/12/23 10:26:06;;;;;;;17.33;3.80;;;7.50;99.90;;;;;;4990361;28;20066;-79
2023/12/23 10:28:35;;;;;;;8.40;2.17;;;7.60;99.90;;;;;;4986283;28;20042;-79
2023/12/23 10:31:02;;;;;;;8.95;2.97;;;7.70;99.90;;;;;;4980129;28;20038;-79
2023/12/23 10:33:30;;;;;;;11.52;2.17;;;7.80;99.90;;;;;;4975826;28;20042;-79
2023/12/23 10:35:58;;;;;;;6.03;2.17;;;7.80;99.90;;;;;;5011844;28;20073;-78
2023/12/23 10:38:26;;;;;;;6.75;2.30;;;7.90;99.90;;;;;;4981160;28;20050;-78
2023/12/23 10:41:01;;;;;;;10.13;2.40;;;8.00;99.90;;;;;;4979426;28;20054;-78
2023/12/23 10:43:27;;;;;;;6.53;1.85;;;8.00;99.90;;;;;;4984584;28;20069;-78
2023/12/23 10:45:54;;;;;;;7.55;1.13;;;8.10;99.90;;;;;;4982982;28;20417;-78
2023/12/23 10:48:21;;;;;;;9.50;1.60;;;8.10;99.90;;;;;;4979091;28;20074;-79
2023/12/23 10:50:47;;;;;;;7.72;2.08;;;8.10;99.90;;;;;;4978245;28;20051;-80
2023/12/23 10:53:16;;;;;;;4.28;0.82;;;8.10;99.90;;;;;;4981925;28;20076;-80
2023/12/23 10:55:43;;;;;;;7.35;2.00;;;8.10;99.90;;;;;;4976239;28;20277;-80
2023/12/23 10:58:12;;;;;;;7.03;1.25;;;8.10;99.90;;;;;;4963938;28;20902;-80
2023/12/23 11:00:37;;;;;;;6.43;3.20;;;8.20;99.90;;;;;;4981185;28;20042;-80
2023/12/23 11:03:05;;;;;;;5.88;1.40;;;8.20;99.90;;;;;;4981879;28;20062;-80
2023/12/23 11:05:36;;;;;;;7.32;1.58;;;8.20;99.90;;;;;;4979470;28;20104;-80
2023/12/23 11:08:06;;;;;;;2.33;1.65;;;8.10;99.90;;;;;;4964578;28;20272;-79
2023/12/23 11:10:33;;;;;;;6.22;1.05;;;8.10;99.90;;;;;;4979925;28;20040;-80
2023/12/23 11:13:00;;;;;;;3.95;0.90;;;8.20;99.90;;;;;;4980160;28;20536;-79
2023/12/23 11:15:25;;;;;;;6.93;1.13;;;8.20;99.90;;;;;;5004633;28;20420;-85
2023/12/23 11:17:54;;;;;;;4.47;0.80;;;8.20;99.90;;;;;;4965140;28;20053;-80
2023/12/23 11:20:32;;;;;;;1.80;1.27;;;8.20;99.90;;;;;;4985096;28;20378;-79
2023/12/23 11:22:59;;;;;;;3.92;1.15;;;8.20;99.90;;;;;;4971784;28;20053;-80
2023/12/23 11:25:42;;;;;;;3.17;0.65;;;8.20;99.90;;;;;;4997877;28;20096;-79
2023/12/23 11:28:09;;;;;;;4.03;1.00;;;8.20;99.90;;;;;;5019995;28;20046;-79
2023/12/23 11:30:57;;;;;;;1.08;0.73;;;8.10;99.90;;;;;;5001609;28;20057;-80
2023/12/23 11:33:26;;;;;;;5.38;1.20;;;8.20;99.90;;;;;;4997572;28;20042;-80
2023/12/23 11:35:53;;;;;;;8.88;2.00;;;8.20;99.90;;;;;;4988248;28;20452;-79
2023/12/23 11:38:23;;;;;;;13.98;2.40;;;8.30;99.90;;;;;;4984480;28;20034;-79
2023/12/23 11:40:49;;;;;;;8.50;2.17;;;8.30;99.90;;;;;;4967736;28;20134;-77
2023/12/23 11:43:15;;;;;;;4.22;0.90;;;8.40;99.90;;;;;;4986815;28;20042;-73
2023/12/23 11:45:44;;;;;;;5.97;1.40;;;8.40;99.90;;;;;;5020599;28;20069;-73
2023/12/23 11:48:10;;;;;;;3.95;1.42;;;8.40;99.90;;;;;;4966860;28;20054;-73
2023/12/23 11:50:36;;;;;;;10.93;1.50;;;8.40;99.90;;;;;;5017070;28;20068;-74
2023/12/23 11:53:02;;;;;;;9.00;1.90;;;8.50;99.90;;;;;;4978625;28;20517;-74
2023/12/23 11:55:28;;;;;;;5.38;1.98;;;8.50;99.90;;;;;;5012328;28;20042;-74
2023/12/23 11:57:54;;;;;;;4.65;2.10;;;8.50;99.90;;;;;;4994953;28;20077;-73
2023/12/23 12:00:20;;;;;;;7.22;1.20;;;8.50;99.90;;;;;;4962459;28;20052;-74
2023/12/23 12:02:46;;;;;;;8.95;1.63;;;8.50;99.90;;;;;;4977820;28;20401;-73
2023/12/23 12:05:12;;;;;;;5.15;1.48;;;8.50;99.90;;;;;;4979282;28;20319;-73
2023/12/23 12:07:38;;;;;;;5.18;2.08;;;8.50;99.90;;;;;;4978852;28;20505;-74
2023/12/23 12:10:03;;;;;;;23.33;3.45;;;8.50;99.90;;;;;;4978216;28;20035;-74
2023/12/23 12:12:29;;;;;;;10.27;2.83;;;8.60;99.90;;;;;;4978435;28;20058;-74
2023/12/23 12:14:55;;;;;;;13.80;2.28;;;8.60;99.90;;;;;;4978765;28;20509;-73
2023/12/23 12:17:20;;;;;;;6.40;1.33;;;8.60;99.90;;;;;;4978348;28;20060;-74
2023/12/23 12:19:46;;;;;;;9.00;2.13;;;8.60;99.90;;;;;;4980305;28;20042;-73
2023/12/23 12:22:11;;;;;;;8.75;2.00;;;8.50;99.90;;;;;;4979100;28;20078;-73
2023/12/23 12:24:37;;;;;;;10.95;1.95;;;8.50;99.90;;;;;;4978739;28;20050;-73
2023/12/23 12:27:04;;;;;;;8.40;2.60;;;8.50;99.90;;;;;;4978305;28;20061;-74
2023/12/23 12:29:29;;;;;;;35.60;3.08;;;8.60;99.90;;;;;;4979626;28;20046;-73
2023/12/23 12:31:57;;;;;;;12.15;2.10;;;8.60;99.90;;;;;;4977911;28;20567;-73
2023/12/23 12:34:23;;;;;;;9.13;1.92;;;8.60;99.90;;;;;;4978857;28;20347;-73
2023/12/23 12:36:52;;;;;;;8.15;2.08;;;8.60;99.90;;;;;;4977968;28;20497;-73
2023/12/23 12:39:21;;;;;;;7.10;1.63;;;8.60;99.90;;;;;;4978752;28;20051;-73
2023/12/23 12:41:51;;;;;;;18.55;3.50;;;8.60;99.90;;;;;;4962995;28;20050;-73
2023/12/23 12:44:19;;;;;;;8.65;2.50;;;8.60;99.90;;;;;;4978134;28;20246;-73
2023/12/23 12:46:54;;;;;;;8.73;2.55;;;8.50;99.90;;;;;;4978407;28;20046;-73
2023/12/23 12:49:22;;;;;;;10.38;2.72;;;8.60;99.90;;;;;;4962736;28;20046;-75